createdAt,value
2022-10-19T00:02:11.462Z,76.53
2022-10-19T00:04:38.158Z,75.53
2022-10-19T00:07:04.692Z,76.61
2022-10-19T00:09:31.332Z,76.68
2022-10-19T00:11:57.879Z,77.62
2022-10-19T00:14:24.811Z,78.13
2022-10-19T00:16:52.915Z,77.20
2022-10-19T00:19:23.156Z,77.75
2022-10-19T00:24:17.785Z,76.41
2022-10-19T00:26:44.681Z,76.88
2022-10-19T00:29:13.537Z,76.95
2022-10-19T00:31:41.200Z,76.32
2022-10-19T00:34:07.946Z,76.94
2022-10-19T00:36:38.055Z,77.69
2022-10-19T00:39:07.762Z,76.89
2022-10-19T00:41:36.398Z,76.76
2022-10-19T00:44:11.939Z,77.09
2022-10-19T00:46:39.554Z,76.54
2022-10-19T00:49:20.427Z,76.74
2022-10-19T00:51:54.659Z,77.08
2022-10-19T00:54:22.235Z,77.52
2022-10-19T00:56:52.232Z,76.37
2022-10-19T00:59:21.636Z,76.06
2022-10-19T01:01:49.879Z,77.03
2022-10-19T01:04:16.818Z,76.63
2022-10-19T01:06:43.548Z,76.91
2022-10-19T01:09:10.264Z,77.10
2022-10-19T01:11:39.915Z,76.04
2022-10-19T01:14:21.427Z,76.92
2022-10-19T01:17:15.751Z,77.15
2022-10-19T01:19:57.450Z,77.08
2022-10-19T01:22:26.705Z,76.57
2022-10-19T01:25:21.239Z,76.92
2022-10-19T01:27:59.664Z,77.39
2022-10-19T01:30:41.431Z,76.59
2022-10-19T01:33:35.372Z,76.74
2022-10-19T01:36:10.995Z,77.13
2022-10-19T01:38:59.099Z,76.99
2022-10-19T01:41:38.825Z,75.98
2022-10-19T01:44:16.847Z,76.86
2022-10-19T01:46:57.033Z,77.64
2022-10-19T01:49:31.610Z,77.54
2022-10-19T01:52:03.281Z,77.26
2022-10-19T01:54:36.256Z,76.88
2022-10-19T01:57:07.210Z,77.70
2022-10-19T01:59:35.254Z,77.14
2022-10-19T02:02:07.016Z,76.60
2022-10-19T02:04:36.665Z,76.88
2022-10-19T02:07:06.515Z,77.61
2022-10-19T02:09:33.198Z,76.38
2022-10-19T02:12:04.854Z,76.72
2022-10-19T02:14:37.438Z,75.93
2022-10-19T02:17:14.212Z,76.89
2022-10-19T02:19:41.563Z,77.35
2022-10-19T02:22:08.628Z,77.25
2022-10-19T02:24:35.266Z,77.02
2022-10-19T02:27:05.432Z,76.93
2022-10-19T02:29:37.520Z,77.29
2022-10-19T02:32:04.965Z,76.21
2022-10-19T02:34:32.623Z,76.89
2022-10-19T02:36:59.540Z,77.08
2022-10-19T02:39:26.276Z,76.62
2022-10-19T02:42:12.114Z,76.70
2022-10-19T02:44:58.448Z,76.24
2022-10-19T02:47:35.454Z,75.98
2022-10-19T02:50:06.802Z,76.31
2022-10-19T02:52:33.437Z,75.94
2022-10-19T02:55:00.013Z,77.06
2022-10-19T02:57:26.634Z,77.23
2022-10-19T02:59:53.430Z,77.01
2022-10-19T03:02:21.261Z,76.63
2022-10-19T03:07:21.037Z,76.57
2022-10-19T03:09:47.682Z,77.34
2022-10-19T03:12:14.886Z,78.24
2022-10-19T03:14:41.617Z,78.25
2022-10-19T03:17:08.560Z,77.24
2022-10-19T03:19:36.112Z,77.64
2022-10-19T03:22:03.239Z,77.92
2022-10-19T03:24:30.740Z,77.52
2022-10-19T03:26:57.492Z,77.10
2022-10-19T03:29:24.234Z,77.15
2022-10-19T03:31:51.125Z,77.52
2022-10-19T03:34:17.752Z,75.88
2022-10-19T03:36:44.695Z,76.54
2022-10-19T03:39:14.447Z,76.46
2022-10-19T03:41:41.262Z,76.04
2022-10-19T03:44:09.324Z,77.20
2022-10-19T03:46:36.689Z,77.28
2022-10-19T03:49:04.541Z,77.50
2022-10-19T03:51:32.714Z,77.82
2022-10-19T03:54:02.298Z,76.96
2022-10-19T03:56:30.531Z,76.97
2022-10-19T03:58:59.638Z,76.14
2022-10-19T04:01:30.996Z,75.98
2022-10-19T04:03:59.874Z,78.11
2022-10-19T04:06:31.284Z,77.37
2022-10-19T04:08:58.837Z,76.98
2022-10-19T04:11:30.253Z,77.27
2022-10-19T04:13:58.498Z,77.48
2022-10-19T04:16:27.309Z,76.95
2022-10-19T04:18:54.165Z,77.53
2022-10-19T04:21:20.665Z,77.14
2022-10-19T04:23:47.517Z,76.97
2022-10-19T04:26:14.134Z,77.04
2022-10-19T04:28:40.839Z,77.01
2022-10-19T04:31:08.289Z,76.35
2022-10-19T04:33:34.980Z,77.53
2022-10-19T04:36:07.235Z,77.24
2022-10-19T04:38:34.719Z,77.72
2022-10-19T04:41:06.569Z,76.85
2022-10-19T04:43:33.893Z,77.47
2022-10-19T04:46:10.742Z,77.92
2022-10-19T04:48:38.602Z,77.48
2022-10-19T04:51:05.739Z,78.63
2022-10-19T04:53:33.265Z,78.49
2022-10-19T04:56:00.356Z,78.62
2022-10-19T04:58:27.382Z,78.83
2022-10-19T05:00:54.055Z,77.82
2022-10-19T05:03:20.830Z,76.88
2022-10-19T05:05:47.430Z,77.81
2022-10-19T05:08:14.364Z,78.03
2022-10-19T05:10:44.215Z,77.55
2022-10-19T05:13:13.751Z,76.59
2022-10-19T05:15:40.643Z,77.62
2022-10-19T05:18:07.494Z,77.21
2022-10-19T05:20:34.160Z,77.92
2022-10-19T05:23:06.151Z,77.53
2022-10-19T05:25:34.246Z,78.46
2022-10-19T05:28:00.785Z,78.34
2022-10-19T05:30:27.495Z,77.38
2022-10-19T05:32:54.076Z,77.07
2022-10-19T05:35:22.626Z,76.28
2022-10-19T05:37:54.385Z,76.67
2022-10-19T05:40:21.128Z,77.27
2022-10-19T05:42:47.678Z,76.96
2022-10-19T05:45:14.455Z,75.93
2022-10-19T05:47:41.006Z,77.64
2022-10-19T05:50:08.072Z,77.16
2022-10-19T05:52:34.726Z,76.03
2022-10-19T05:55:01.454Z,77.05
2022-10-19T05:57:28.034Z,76.53
2022-10-19T05:59:56.834Z,78.10
2022-10-19T06:02:23.682Z,78.36
2022-10-19T06:04:50.323Z,76.85
2022-10-19T06:07:17.082Z,77.67
2022-10-19T06:09:43.941Z,77.35
2022-10-19T06:12:10.554Z,77.12
2022-10-19T06:14:37.277Z,78.33
2022-10-19T06:17:03.992Z,78.25
2022-10-19T06:19:30.706Z,78.79
2022-10-19T06:21:58.030Z,79.49
2022-10-19T06:24:24.717Z,80.23
2022-10-19T06:26:51.403Z,79.40
2022-10-19T06:29:19.001Z,79.82
2022-10-19T06:31:48.682Z,78.86
2022-10-19T06:34:15.626Z,79.15
2022-10-19T06:36:42.353Z,79.72
2022-10-19T06:39:09.549Z,79.79
2022-10-19T06:41:36.311Z,80.39
2022-10-19T06:44:18.117Z,81.06
2022-10-19T06:46:44.738Z,82.21
2022-10-19T06:49:13.093Z,81.42
2022-10-19T06:51:40.730Z,81.17
2022-10-19T06:54:07.953Z,81.05
2022-10-19T06:56:35.038Z,81.49
2022-10-19T06:59:02.350Z,81.98
2022-10-19T07:01:29.179Z,82.10
2022-10-19T07:03:56.010Z,81.97
2022-10-19T07:06:23.746Z,82.30
2022-10-19T07:08:50.541Z,82.72
2022-10-19T07:11:19.755Z,83.61
2022-10-19T07:13:46.558Z,83.19
2022-10-19T07:16:19.810Z,83.49
2022-10-19T07:18:48.659Z,83.33
2022-10-19T07:21:16.763Z,84.09
2022-10-19T07:23:47.394Z,83.88
2022-10-19T07:26:17.849Z,83.57
2022-10-19T07:28:47.157Z,84.22
2022-10-19T07:31:17.951Z,83.67
2022-10-19T07:33:45.046Z,83.43
2022-10-19T07:36:13.743Z,83.91
2022-10-19T07:38:40.791Z,83.69
2022-10-19T07:41:12.694Z,84.12
2022-10-19T07:43:40.947Z,84.10
2022-10-19T07:46:29.346Z,84.66
2022-10-19T07:48:56.240Z,84.47
2022-10-19T07:51:22.980Z,84.11
2022-10-19T07:53:49.895Z,84.63
2022-10-19T07:56:25.045Z,84.94
2022-10-19T07:58:53.841Z,84.94
2022-10-19T08:01:29.337Z,85.63
2022-10-19T08:04:48.586Z,85.90
2022-10-19T08:06:43.825Z,85.03
2022-10-19T08:09:13.400Z,85.69
2022-10-19T08:11:49.686Z,86.35
2022-10-19T08:14:16.547Z,86.12
2022-10-19T08:16:44.624Z,86.20
2022-10-19T08:19:13.706Z,86.18
2022-10-19T08:21:43.939Z,86.60
2022-10-19T08:24:13.063Z,86.27
2022-10-19T08:26:40.917Z,86.50
2022-10-19T08:29:12.345Z,86.29
2022-10-19T08:31:40.335Z,85.89
2022-10-19T08:34:07.154Z,86.67
2022-10-19T08:36:35.938Z,86.34
2022-10-19T08:39:05.305Z,86.73
2022-10-19T08:41:41.418Z,86.51
2022-10-19T08:44:33.344Z,86.53
2022-10-19T08:47:27.087Z,86.39
2022-10-19T08:49:54.091Z,86.57
2022-10-19T08:52:35.977Z,86.19
2022-10-19T08:55:13.992Z,85.46
2022-10-19T08:58:20.586Z,85.09
2022-10-19T09:01:16.648Z,85.21
2022-10-19T09:04:01.821Z,84.51
2022-10-19T09:06:49.153Z,84.54
2022-10-19T09:09:18.644Z,84.10
2022-10-19T09:11:49.551Z,83.79
2022-10-19T09:14:30.452Z,82.43
2022-10-19T09:17:04.201Z,81.91
2022-10-19T09:19:32.089Z,81.38
2022-10-19T09:22:04.663Z,80.22
2022-10-19T09:24:48.283Z,80.20
2022-10-19T09:27:22.153Z,79.29
2022-10-19T09:29:57.484Z,78.38
2022-10-19T09:32:39.779Z,78.39
2022-10-19T09:35:25.066Z,80.35
2022-10-19T09:37:52.489Z,79.04
2022-10-19T09:40:22.930Z,77.08
2022-10-19T09:42:57.671Z,78.67
2022-10-19T09:45:40.595Z,77.61
2022-10-19T09:48:19.925Z,78.08
2022-10-19T09:50:53.939Z,79.20
2022-10-19T09:53:22.338Z,78.75
2022-10-19T09:55:58.952Z,78.00
2022-10-19T09:58:32.070Z,78.20
2022-10-19T10:01:01.889Z,79.80
2022-10-19T10:03:40.425Z,77.15
2022-10-19T10:06:10.442Z,77.68
2022-10-19T10:08:45.020Z,77.06
2022-10-19T10:11:37.827Z,75.83
2022-10-19T10:14:16.341Z,76.74
2022-10-19T10:16:43.590Z,76.83
2022-10-19T10:19:14.262Z,73.55
2022-10-19T10:21:49.601Z,73.77
2022-10-19T10:24:19.202Z,73.40
2022-10-19T10:26:51.876Z,73.03
2022-10-19T10:29:22.325Z,75.80
2022-10-19T10:31:55.898Z,74.63
2022-10-19T10:37:22.063Z,74.01
2022-10-19T10:39:53.303Z,72.91
2022-10-19T10:42:27.442Z,71.56
2022-10-19T10:44:56.492Z,70.86
2022-10-19T10:47:23.744Z,72.13
2022-10-19T10:49:57.597Z,71.05
2022-10-19T10:52:27.718Z,71.05
2022-10-19T10:55:09.969Z,70.01
2022-10-19T10:57:45.339Z,69.38
2022-10-19T11:00:13.274Z,68.65
2022-10-19T11:02:53.230Z,69.85
2022-10-19T11:05:29.112Z,69.68
2022-10-19T11:08:08.068Z,69.56
2022-10-19T11:10:39.595Z,68.71
2022-10-19T11:13:18.511Z,70.46
2022-10-19T11:16:00.940Z,70.38
2022-10-19T11:18:34.267Z,71.13
2022-10-19T11:21:07.962Z,69.34
2022-10-19T11:23:48.126Z,71.62
2022-10-19T11:26:53.966Z,68.30
2022-10-19T11:29:29.582Z,68.66
2022-10-19T11:31:57.570Z,69.34
2022-10-19T11:34:45.678Z,66.80
2022-10-19T11:37:27.868Z,67.56
2022-10-19T11:39:54.509Z,67.07
2022-10-19T11:45:27.797Z,68.74
2022-10-19T11:48:06.560Z,67.84
2022-10-19T11:50:58.586Z,67.52
2022-10-19T11:53:49.603Z,66.89
2022-10-19T11:57:02.580Z,65.70
2022-10-19T11:59:51.022Z,64.99
2022-10-19T12:02:39.052Z,66.29
2022-10-19T12:05:29.798Z,64.43
2022-10-19T12:08:08.777Z,64.33
2022-10-19T12:10:48.148Z,64.15
2022-10-19T12:13:30.838Z,63.79
2022-10-19T12:15:59.586Z,65.17
2022-10-19T12:18:41.214Z,62.91
2022-10-19T12:21:26.533Z,63.86
2022-10-19T12:23:54.661Z,66.18
2022-10-19T12:26:22.962Z,66.02
2022-10-19T12:28:58.926Z,65.60
2022-10-19T12:31:27.330Z,64.51
2022-10-19T12:34:06.082Z,62.61
2022-10-19T12:36:58.411Z,62.74
2022-10-19T12:39:29.755Z,62.24
2022-10-19T12:42:27.677Z,61.33
2022-10-19T12:45:23.841Z,60.49
2022-10-19T12:48:08.706Z,62.17
2022-10-19T12:50:50.880Z,61.92
2022-10-19T12:53:33.021Z,60.80
2022-10-19T12:56:04.416Z,61.85
2022-10-19T12:58:47.582Z,60.69
2022-10-19T13:01:35.107Z,62.58
2022-10-19T13:04:10.404Z,63.05
2022-10-19T13:06:42.119Z,63.61
2022-10-19T13:09:22.134Z,64.58
2022-10-19T13:12:16.497Z,63.85
2022-10-19T13:14:58.870Z,64.14
2022-10-19T13:17:36.610Z,65.82
2022-10-19T13:20:15.349Z,65.13
2022-10-19T13:22:46.937Z,65.35
2022-10-19T13:25:20.878Z,65.35
2022-10-19T13:27:52.715Z,65.88
2022-10-19T13:30:46.991Z,63.98
2022-10-19T13:33:24.782Z,64.52
2022-10-19T13:36:00.957Z,63.74
2022-10-19T13:38:38.037Z,64.51
2022-10-19T13:41:25.895Z,62.57
2022-10-19T13:44:12.267Z,62.77
2022-10-19T13:47:10.254Z,63.81
2022-10-19T13:49:40.221Z,63.81
2022-10-19T13:52:24.302Z,61.91
2022-10-19T13:55:12.689Z,59.88
2022-10-19T13:57:54.172Z,59.81
2022-10-19T14:00:24.117Z,62.32
2022-10-19T14:03:11.804Z,62.72
2022-10-19T14:06:06.397Z,61.61
2022-10-19T14:08:41.966Z,61.72
2022-10-19T14:11:21.764Z,61.56
2022-10-19T14:14:13.575Z,61.64
2022-10-19T14:16:59.804Z,60.65
2022-10-19T14:19:32.910Z,60.62
2022-10-19T14:22:01.772Z,61.77
2022-10-19T14:24:35.318Z,60.64
2022-10-19T14:27:05.183Z,60.54
2022-10-19T14:29:46.469Z,60.46
2022-10-19T14:32:13.666Z,59.13
2022-10-19T14:34:42.117Z,61.37
2022-10-19T14:37:21.064Z,60.53
2022-10-19T14:40:06.349Z,59.22
2022-10-19T14:42:42.048Z,61.16
2022-10-19T14:45:18.267Z,59.17
2022-10-19T14:47:57.532Z,60.40
2022-10-19T14:50:46.920Z,60.87
2022-10-19T14:53:50.674Z,60.36
2022-10-19T14:56:29.635Z,62.88
2022-10-19T14:59:47.808Z,62.86
2022-10-19T15:02:26.491Z,65.22
2022-10-19T15:04:56.304Z,63.36
2022-10-19T15:07:34.967Z,63.45
2022-10-19T15:10:05.339Z,63.98
2022-10-19T15:12:39.021Z,64.32
2022-10-19T15:15:33.635Z,65.02
2022-10-19T15:18:00.472Z,64.93
2022-10-19T15:20:44.254Z,66.10
2022-10-19T15:23:41.685Z,65.71
2022-10-19T15:26:26.707Z,66.87
2022-10-19T15:28:55.391Z,67.22
2022-10-19T15:31:27.806Z,67.53
2022-10-19T15:33:57.461Z,68.42
2022-10-19T15:36:25.539Z,68.95
2022-10-19T15:39:06.267Z,70.02
2022-10-19T15:41:44.896Z,70.15
2022-10-19T15:44:42.470Z,71.22
2022-10-19T15:47:15.235Z,71.49
2022-10-19T15:49:41.878Z,71.52
2022-10-19T15:52:16.101Z,71.77
2022-10-19T15:54:42.968Z,72.51
2022-10-19T15:57:39.731Z,73.16
2022-10-19T16:00:16.054Z,73.86
2022-10-19T16:02:42.977Z,73.95
2022-10-19T16:05:10.017Z,73.90
2022-10-19T16:07:40.089Z,74.96
2022-10-19T16:10:08.198Z,75.38
2022-10-19T16:12:34.911Z,75.38
2022-10-19T16:15:01.466Z,75.64
2022-10-19T16:17:28.197Z,75.37
2022-10-19T16:19:54.748Z,75.56
2022-10-19T16:22:21.437Z,75.69
2022-10-19T16:24:48.118Z,76.02
2022-10-19T16:27:16.123Z,76.08
2022-10-19T16:29:44.306Z,76.44
2022-10-19T16:32:11.095Z,76.77
2022-10-19T16:34:38.102Z,76.50
2022-10-19T16:37:06.908Z,76.70
2022-10-19T16:39:34.450Z,76.60
2022-10-19T16:42:01.334Z,76.97
2022-10-19T16:44:27.912Z,77.09
2022-10-19T16:46:56.625Z,76.79
2022-10-19T16:49:23.561Z,77.17
2022-10-19T16:51:53.231Z,77.07
2022-10-19T16:54:23.976Z,77.37
2022-10-19T16:56:50.536Z,77.75
2022-10-19T16:59:18.446Z,78.03
2022-10-19T17:01:46.532Z,77.97
2022-10-19T17:04:15.300Z,78.28
2022-10-19T17:06:42.133Z,77.88
2022-10-19T17:11:55.817Z,78.28
2022-10-19T17:14:22.466Z,78.39
2022-10-19T17:16:49.098Z,78.60
2022-10-19T17:19:15.716Z,78.85
2022-10-19T17:21:42.705Z,79.34
2022-10-19T17:24:20.196Z,78.36
2022-10-19T17:26:49.478Z,78.48
2022-10-19T17:29:16.217Z,77.78
2022-10-19T17:31:43.550Z,77.68
2022-10-19T17:34:10.716Z,77.42
2022-10-19T17:39:17.752Z,78.07
2022-10-19T17:41:48.974Z,78.14
2022-10-19T17:44:16.910Z,78.60
2022-10-19T17:46:44.273Z,78.85
2022-10-19T17:49:11.452Z,78.71
2022-10-19T17:51:38.786Z,79.21
2022-10-19T17:54:08.289Z,79.45
2022-10-19T17:56:36.626Z,78.54
2022-10-19T17:59:04.286Z,78.33
2022-10-19T18:01:31.528Z,77.94
2022-10-19T18:03:58.078Z,77.67
2022-10-19T18:06:27.498Z,77.79
2022-10-19T18:08:56.482Z,78.76
2022-10-19T18:11:25.154Z,79.10
2022-10-19T18:13:54.045Z,78.19
2022-10-19T18:16:23.738Z,78.59
2022-10-19T18:18:53.414Z,78.88
2022-10-19T18:21:24.794Z,79.01
2022-10-19T18:23:53.374Z,78.46
2022-10-19T18:26:25.779Z,78.84
2022-10-19T18:28:53.254Z,77.54
2022-10-19T18:31:21.922Z,79.01
2022-10-19T18:33:55.201Z,79.02
2022-10-19T18:36:21.856Z,79.58
2022-10-19T18:38:52.747Z,78.91
2022-10-19T18:41:20.082Z,79.16
2022-10-19T18:43:55.367Z,78.74
2022-10-19T18:46:23.589Z,79.42
2022-10-19T18:48:50.197Z,78.19
2022-10-19T18:51:18.927Z,78.08
2022-10-19T18:53:46.255Z,77.78
2022-10-19T18:56:15.658Z,78.10
2022-10-19T18:58:42.659Z,77.93
2022-10-19T19:01:22.940Z,77.52
2022-10-19T19:03:52.157Z,77.41
2022-10-19T19:06:22.110Z,77.56
2022-10-19T19:08:49.269Z,77.49
2022-10-19T19:11:32.953Z,78.66
2022-10-19T19:14:15.261Z,77.91
2022-10-19T19:16:42.987Z,77.60
2022-10-19T19:19:12.561Z,78.06
2022-10-19T19:21:41.867Z,77.98
2022-10-19T19:24:08.514Z,78.02
2022-10-19T19:26:39.633Z,78.09
2022-10-19T19:29:06.424Z,78.25
2022-10-19T19:31:33.362Z,78.58
2022-10-19T19:34:01.100Z,78.14
2022-10-19T19:36:28.500Z,78.43
2022-10-19T19:38:56.979Z,77.75
2022-10-19T19:41:23.733Z,76.51
2022-10-19T19:43:50.472Z,77.10
2022-10-19T19:46:19.307Z,77.69
2022-10-19T19:48:47.965Z,77.35
2022-10-19T19:51:21.018Z,78.03
2022-10-19T19:53:48.757Z,77.51
2022-10-19T19:56:16.851Z,76.87
2022-10-19T19:58:45.252Z,76.61
2022-10-19T20:01:18.253Z,76.84
2022-10-19T20:03:46.040Z,77.29
2022-10-19T20:06:14.702Z,77.40
2022-10-19T20:08:41.432Z,77.15
2022-10-19T20:11:16.141Z,76.97
2022-10-19T20:13:44.840Z,76.83
2022-10-19T20:16:14.975Z,77.78
2022-10-19T20:18:45.136Z,77.38
2022-10-19T20:21:12.226Z,77.97
2022-10-19T20:23:38.993Z,77.65
2022-10-19T20:26:06.285Z,77.31
2022-10-19T20:28:33.258Z,78.59
2022-10-19T20:31:08.000Z,78.38
2022-10-19T20:33:36.451Z,79.23
2022-10-19T20:36:08.100Z,78.92
2022-10-19T20:38:35.944Z,77.96
2022-10-19T20:41:08.416Z,78.01
2022-10-19T20:43:36.887Z,76.73
2022-10-19T20:46:11.832Z,78.44
2022-10-19T20:48:39.635Z,79.42
2022-10-19T20:51:09.054Z,78.84
2022-10-19T20:53:35.793Z,78.77
2022-10-19T20:56:06.987Z,78.24
2022-10-19T20:58:34.684Z,78.73
2022-10-19T21:01:19.426Z,79.19
2022-10-19T21:03:48.766Z,78.91
2022-10-19T21:06:15.963Z,78.04
2022-10-19T21:08:42.834Z,77.67
2022-10-19T21:11:16.989Z,77.09
2022-10-19T21:13:44.149Z,76.77
2022-10-19T21:16:13.609Z,77.60
2022-10-19T21:18:40.723Z,77.27
2022-10-19T21:21:16.001Z,77.66
2022-10-19T21:23:44.393Z,77.84
2022-10-19T21:26:11.088Z,78.07
2022-10-19T21:28:38.449Z,78.13
2022-10-19T21:31:09.247Z,78.48
2022-10-19T21:33:36.408Z,78.45
2022-10-19T21:36:05.451Z,78.30
2022-10-19T21:38:32.248Z,77.27
2022-10-19T21:41:07.874Z,77.50
2022-10-19T21:43:35.143Z,77.57
2022-10-19T21:46:03.566Z,78.35
2022-10-19T21:48:31.074Z,77.76
2022-10-19T21:50:57.681Z,77.69
2022-10-19T21:53:24.407Z,77.95
2022-10-19T21:55:52.713Z,78.27
2022-10-19T21:58:23.177Z,77.61
2022-10-19T22:00:49.810Z,78.68
2022-10-19T22:03:18.204Z,77.54
2022-10-19T22:05:51.726Z,77.47
2022-10-19T22:08:18.390Z,77.53
2022-10-19T22:10:44.942Z,77.87
2022-10-19T22:13:11.559Z,77.80
2022-10-19T22:15:39.032Z,77.96
2022-10-19T22:18:05.792Z,78.73
2022-10-19T22:20:36.105Z,78.50
2022-10-19T22:23:04.795Z,78.34
2022-10-19T22:25:32.386Z,77.91
2022-10-19T22:27:59.069Z,77.72
2022-10-19T22:30:25.887Z,76.17
2022-10-19T22:32:52.701Z,77.43
2022-10-19T22:35:19.397Z,78.12
2022-10-19T22:37:46.156Z,78.39
2022-10-19T22:40:13.254Z,78.30
2022-10-19T22:42:39.854Z,78.63
2022-10-19T22:45:06.993Z,77.41
2022-10-19T22:47:33.628Z,77.06
2022-10-19T22:50:00.226Z,78.04
2022-10-19T22:52:26.901Z,77.72
2022-10-19T22:54:53.668Z,77.88
2022-10-19T22:57:20.340Z,78.95
2022-10-19T22:59:46.958Z,79.55
2022-10-19T23:02:13.593Z,79.07
2022-10-19T23:04:40.141Z,79.72
2022-10-19T23:07:06.858Z,78.83
2022-10-19T23:09:33.446Z,78.34
2022-10-19T23:12:00.114Z,78.55
2022-10-19T23:14:26.722Z,77.64
2022-10-19T23:16:53.388Z,77.88
2022-10-19T23:19:20.097Z,78.16
2022-10-19T23:21:46.759Z,78.32
2022-10-19T23:24:13.308Z,78.91
2022-10-19T23:26:39.995Z,79.82
2022-10-19T23:29:06.593Z,79.61
2022-10-19T23:31:33.707Z,78.81
2022-10-19T23:34:00.271Z,78.91
2022-10-19T23:36:28.596Z,78.86
2022-10-19T23:38:57.301Z,79.56
2022-10-19T23:41:24.089Z,79.49
2022-10-19T23:43:50.923Z,79.42
2022-10-19T23:46:17.577Z,80.18
2022-10-19T23:48:44.188Z,79.99
2022-10-19T23:51:16.578Z,79.66
2022-10-19T23:53:44.906Z,79.67
2022-10-19T23:56:20.746Z,78.98
2022-10-19T23:58:47.753Z,79.29
